createdAt,value
2019-03-23T00:01:25.432Z,93.55
2019-03-23T00:03:51.222Z,93.68
2019-03-23T00:06:17.001Z,93.35
2019-03-23T00:08:42.806Z,93.45
2019-03-23T00:11:08.623Z,94.06
2019-03-23T00:13:34.388Z,94.25
2019-03-23T00:16:00.180Z,94.22
2019-03-23T00:18:25.993Z,94.31
2019-03-23T00:20:51.783Z,94.31
2019-03-23T00:23:17.581Z,94.18
2019-03-23T00:25:43.379Z,95.47
2019-03-23T00:28:09.157Z,95.45
2019-03-23T00:30:34.957Z,94.90
2019-03-23T00:33:00.734Z,94.40
2019-03-23T00:35:26.538Z,95.15
2019-03-23T00:37:52.326Z,95.62
2019-03-23T00:40:18.134Z,95.37
2019-03-23T00:42:43.921Z,94.58
2019-03-23T00:45:09.914Z,94.26
2019-03-23T00:47:35.710Z,94.46
2019-03-23T00:50:02.035Z,94.25
2019-03-23T00:52:27.797Z,94.90
2019-03-23T00:54:53.603Z,94.55
2019-03-23T00:57:19.385Z,94.13
2019-03-23T00:59:45.176Z,96.47
2019-03-23T01:02:10.973Z,97.39
2019-03-23T01:04:36.809Z,97.36
2019-03-23T01:07:02.750Z,96.91
2019-03-23T01:09:28.554Z,96.58
2019-03-23T01:11:54.332Z,96.73
2019-03-23T01:14:20.146Z,96.61
2019-03-23T01:16:45.928Z,96.63
2019-03-23T01:19:11.712Z,96.66
2019-03-23T01:21:37.786Z,96.92
2019-03-23T01:24:03.688Z,97.26
2019-03-23T01:26:29.486Z,97.48
2019-03-23T01:28:55.410Z,97.28
2019-03-23T01:31:21.336Z,97.41
2019-03-23T01:33:47.116Z,97.35
2019-03-23T01:36:13.052Z,97.36
2019-03-23T01:38:38.832Z,97.15
2019-03-23T01:41:05.072Z,97.16
2019-03-23T01:43:31.014Z,97.24
2019-03-23T01:45:56.816Z,97.51
2019-03-23T01:48:22.594Z,97.56
2019-03-23T01:50:49.054Z,97.34
2019-03-23T01:53:14.836Z,97.54
2019-03-23T01:55:40.869Z,97.62
2019-03-23T01:58:06.661Z,98.00
2019-03-23T02:00:32.554Z,97.96
2019-03-23T02:02:58.450Z,97.92
2019-03-23T02:05:24.486Z,98.07
2019-03-23T02:07:50.268Z,98.01
2019-03-23T02:10:16.061Z,97.91
2019-03-23T02:12:41.921Z,98.26
2019-03-23T02:15:09.722Z,98.30
2019-03-23T02:17:35.909Z,98.05
2019-03-23T02:20:04.953Z,97.82
2019-03-23T02:22:30.747Z,98.04
2019-03-23T02:24:57.334Z,97.90
2019-03-23T02:27:23.510Z,97.50
2019-03-23T02:29:49.336Z,97.26
2019-03-23T02:32:15.829Z,97.40
2019-03-23T02:34:42.358Z,97.43
2019-03-23T02:37:08.142Z,97.45
2019-03-23T02:39:34.039Z,97.59
2019-03-23T02:41:59.821Z,97.48
2019-03-23T02:44:25.600Z,97.35
2019-03-23T02:46:51.398Z,97.28
2019-03-23T02:49:17.907Z,97.40
2019-03-23T02:51:43.999Z,97.57
2019-03-23T02:54:09.856Z,96.99
2019-03-23T02:56:35.618Z,97.03
2019-03-23T02:59:04.608Z,97.08
2019-03-23T03:01:30.395Z,97.10
2019-03-23T03:03:56.177Z,96.83
2019-03-23T03:06:22.302Z,96.89
2019-03-23T03:08:48.088Z,96.93
2019-03-23T03:11:13.913Z,96.66
2019-03-23T03:13:39.692Z,96.52
2019-03-23T03:16:05.486Z,96.57
2019-03-23T03:18:31.289Z,96.37
2019-03-23T03:20:57.096Z,95.95
2019-03-23T03:23:22.884Z,95.80
2019-03-23T03:25:48.661Z,95.76
2019-03-23T03:28:14.473Z,95.76
2019-03-23T03:30:40.258Z,95.80
2019-03-23T03:33:06.040Z,95.81
2019-03-23T03:35:31.815Z,95.67
2019-03-23T03:37:57.622Z,95.48
2019-03-23T03:40:23.398Z,95.36
2019-03-23T03:42:49.220Z,95.18
2019-03-23T03:45:22.963Z,95.27
2019-03-23T03:47:48.763Z,95.29
2019-03-23T03:50:14.547Z,95.00
2019-03-23T03:52:40.341Z,95.46
2019-03-23T03:55:06.625Z,95.31
2019-03-23T03:57:32.420Z,95.57
2019-03-23T03:59:58.212Z,95.48
2019-03-23T04:02:24.033Z,95.35
2019-03-23T04:04:49.814Z,95.52
2019-03-23T04:07:15.671Z,95.33
2019-03-23T04:09:41.440Z,95.27
2019-03-23T04:12:07.217Z,95.31
2019-03-23T04:14:33.016Z,95.12
2019-03-23T04:16:58.800Z,95.30
2019-03-23T04:19:24.745Z,95.47
2019-03-23T04:21:50.520Z,95.36
2019-03-23T04:24:16.315Z,95.28
2019-03-23T04:26:42.097Z,95.44
2019-03-23T04:29:07.904Z,95.46
2019-03-23T04:31:33.681Z,95.60
2019-03-23T04:33:59.473Z,95.66
2019-03-23T04:36:25.248Z,95.77
2019-03-23T04:38:51.041Z,95.69
2019-03-23T04:41:16.819Z,95.67
2019-03-23T04:43:42.608Z,95.56
2019-03-23T04:46:08.393Z,95.52
2019-03-23T04:48:34.188Z,95.56
2019-03-23T04:50:59.968Z,95.53
2019-03-23T04:53:25.759Z,95.55
2019-03-23T04:55:51.552Z,95.64
2019-03-23T04:58:17.332Z,95.59
2019-03-23T05:00:43.135Z,95.71
2019-03-23T05:03:08.919Z,95.78
2019-03-23T05:05:34.715Z,95.70
2019-03-23T05:08:00.496Z,95.54
2019-03-23T05:10:26.304Z,95.26
2019-03-23T05:12:52.090Z,95.30
2019-03-23T05:15:17.894Z,95.54
2019-03-23T05:17:43.671Z,95.26
2019-03-23T05:20:13.279Z,95.31
2019-03-23T05:22:39.075Z,95.42
2019-03-23T05:25:05.671Z,95.46
2019-03-23T05:27:31.457Z,95.23
2019-03-23T05:29:57.258Z,95.19
2019-03-23T05:32:23.042Z,95.03
2019-03-23T05:34:48.835Z,95.01
2019-03-23T05:37:14.614Z,94.91
2019-03-23T05:39:40.397Z,95.32
2019-03-23T05:42:06.304Z,95.21
2019-03-23T05:44:32.083Z,95.20
2019-03-23T05:46:57.895Z,95.40
2019-03-23T05:49:23.681Z,95.36
2019-03-23T05:51:49.483Z,95.06
2019-03-23T05:54:15.260Z,95.06
2019-03-23T05:56:41.053Z,95.09
2019-03-23T05:59:06.840Z,94.88
2019-03-23T06:01:32.636Z,94.80
2019-03-23T06:03:58.413Z,94.93
2019-03-23T06:06:24.210Z,94.89
2019-03-23T06:08:54.903Z,94.77
2019-03-23T06:11:17.694Z,94.87
2019-03-23T06:13:43.476Z,94.84
2019-03-23T06:16:09.275Z,94.75
2019-03-23T06:18:35.057Z,94.95
2019-03-23T06:21:00.864Z,94.78
2019-03-23T06:23:26.645Z,94.59
2019-03-23T06:25:52.437Z,94.65
2019-03-23T06:28:18.237Z,94.51
2019-03-23T06:30:44.031Z,94.53
2019-03-23T06:33:09.816Z,94.41
2019-03-23T06:35:35.629Z,94.35
2019-03-23T06:38:01.404Z,94.35
2019-03-23T06:40:27.202Z,93.98
2019-03-23T06:42:59.756Z,94.25
2019-03-23T06:45:20.773Z,94.40
2019-03-23T06:47:46.569Z,94.43
2019-03-23T06:50:12.649Z,94.19
2019-03-23T06:52:38.458Z,93.89
2019-03-23T06:55:05.647Z,93.97
2019-03-23T06:57:31.444Z,93.99
2019-03-23T06:59:57.225Z,93.86
2019-03-23T07:02:23.023Z,93.71
2019-03-23T07:04:49.617Z,93.74
2019-03-23T07:07:15.429Z,93.90
2019-03-23T07:09:41.218Z,93.90
2019-03-23T07:12:07.021Z,93.48
2019-03-23T07:14:32.797Z,93.54
2019-03-23T07:16:58.592Z,93.32
2019-03-23T07:19:24.367Z,93.42
2019-03-23T07:21:50.582Z,93.28
2019-03-23T07:24:16.474Z,93.52
2019-03-23T07:26:42.272Z,93.14
2019-03-23T07:29:08.066Z,93.24
2019-03-23T07:31:33.846Z,93.00
2019-03-23T07:33:59.642Z,93.03
2019-03-23T07:36:25.422Z,92.87
2019-03-23T07:38:51.224Z,92.73
2019-03-23T07:41:16.996Z,92.62
2019-03-23T07:43:42.799Z,92.74
2019-03-23T07:46:08.631Z,92.90
2019-03-23T07:48:34.378Z,92.71
2019-03-23T07:51:00.146Z,92.49
2019-03-23T07:53:25.941Z,92.60
2019-03-23T07:55:51.725Z,92.64
2019-03-23T07:58:17.529Z,92.46
2019-03-23T08:00:43.292Z,92.50
2019-03-23T08:03:09.094Z,92.53
2019-03-23T08:05:34.880Z,92.43
2019-03-23T08:08:00.684Z,92.31
2019-03-23T08:10:30.866Z,92.17
2019-03-23T08:12:56.664Z,92.33
2019-03-23T08:15:22.444Z,92.18
2019-03-23T08:17:48.228Z,92.36
2019-03-23T08:20:14.037Z,91.93
2019-03-23T08:22:39.837Z,91.86
2019-03-23T08:25:05.727Z,91.83
2019-03-23T08:27:31.510Z,91.29
2019-03-23T08:29:57.306Z,91.26
2019-03-23T08:32:23.086Z,91.10
2019-03-23T08:34:48.881Z,91.16
2019-03-23T08:37:14.662Z,91.50
2019-03-23T08:39:48.048Z,91.46
2019-03-23T08:42:08.152Z,90.97
2019-03-23T08:44:33.953Z,90.97
2019-03-23T08:46:59.734Z,91.01
2019-03-23T08:49:25.535Z,91.05
2019-03-23T08:51:51.315Z,91.08
2019-03-23T08:54:17.115Z,91.25
2019-03-23T08:56:42.897Z,91.17
2019-03-23T08:59:08.687Z,91.07
2019-03-23T09:01:34.463Z,91.15
2019-03-23T09:04:00.286Z,91.09
2019-03-23T09:06:26.064Z,90.78
2019-03-23T09:08:51.847Z,90.75
2019-03-23T09:11:20.740Z,90.45
2019-03-23T09:13:45.333Z,90.38
2019-03-23T09:16:11.142Z,90.49
2019-03-23T09:18:36.926Z,90.52
2019-03-23T09:21:02.736Z,89.84
2019-03-23T09:23:28.522Z,89.42
2019-03-23T09:25:54.347Z,89.90
2019-03-23T09:28:20.115Z,90.00
2019-03-23T09:30:45.910Z,90.00
2019-03-23T09:33:11.700Z,89.49
2019-03-23T09:35:39.379Z,89.45
2019-03-23T09:38:05.192Z,89.22
2019-03-23T09:40:30.999Z,89.23
2019-03-23T09:42:56.779Z,88.87
2019-03-23T09:45:22.578Z,88.90
2019-03-23T09:47:48.360Z,88.48
2019-03-23T09:50:14.465Z,88.47
2019-03-23T09:52:40.260Z,88.46
2019-03-23T09:55:06.460Z,88.50
2019-03-23T09:57:32.269Z,88.69
2019-03-23T09:59:58.058Z,88.91
2019-03-23T10:02:23.864Z,88.23
2019-03-23T10:04:49.647Z,88.41
2019-03-23T10:07:15.445Z,88.20
2019-03-23T10:09:41.239Z,88.19
2019-03-23T10:12:07.043Z,87.65
2019-03-23T10:14:32.827Z,87.12
2019-03-23T10:16:58.624Z,86.51
2019-03-23T10:19:24.572Z,86.66
2019-03-23T10:21:50.353Z,86.51
2019-03-23T10:24:16.164Z,85.85
2019-03-23T10:26:41.960Z,85.93
2019-03-23T10:29:07.745Z,85.28
2019-03-23T10:31:33.538Z,84.78
2019-03-23T10:33:59.320Z,84.38
2019-03-23T10:36:25.122Z,84.67
2019-03-23T10:38:50.908Z,85.21
2019-03-23T10:41:16.723Z,83.82
2019-03-23T10:43:42.507Z,83.85
2019-03-23T10:46:08.305Z,84.27
2019-03-23T10:48:34.084Z,84.18
2019-03-23T10:50:59.873Z,83.08
2019-03-23T10:53:25.713Z,82.49
2019-03-23T10:55:51.490Z,82.69
2019-03-23T10:58:17.297Z,82.04
2019-03-23T11:00:43.080Z,82.04
2019-03-23T11:03:08.896Z,82.51
2019-03-23T11:05:34.678Z,82.15
2019-03-23T11:08:00.512Z,81.22
2019-03-23T11:10:26.276Z,80.83
2019-03-23T11:12:52.084Z,80.59
2019-03-23T11:15:17.874Z,80.34
2019-03-23T11:17:43.667Z,79.64
2019-03-23T11:20:11.149Z,79.82
2019-03-23T11:22:36.970Z,80.16
2019-03-23T11:25:05.160Z,79.13
2019-03-23T11:27:30.999Z,79.44
2019-03-23T11:29:56.790Z,79.23
2019-03-23T11:32:22.570Z,78.62
2019-03-23T11:34:48.365Z,79.75
2019-03-23T11:37:14.216Z,79.43
2019-03-23T11:39:40.057Z,78.61
2019-03-23T11:42:05.839Z,77.25
2019-03-23T11:44:31.625Z,77.26
2019-03-23T11:46:57.410Z,76.69
2019-03-23T11:49:23.217Z,76.29
2019-03-23T11:51:49.006Z,76.63
2019-03-23T11:54:14.805Z,76.51
2019-03-23T11:56:40.600Z,76.53
2019-03-23T11:59:06.398Z,75.87
2019-03-23T12:01:32.189Z,75.44
2019-03-23T12:03:57.989Z,73.96
2019-03-23T12:06:24.188Z,74.99
2019-03-23T12:08:49.986Z,74.43
2019-03-23T12:11:15.780Z,74.75
2019-03-23T12:13:41.572Z,74.75
2019-03-23T12:16:07.363Z,73.99
2019-03-23T12:18:33.153Z,72.86
2019-03-23T12:20:58.969Z,73.06
2019-03-23T12:23:24.799Z,72.60
2019-03-23T12:25:50.572Z,71.99
2019-03-23T12:28:16.386Z,72.14
2019-03-23T12:30:42.181Z,70.99
2019-03-23T12:33:07.968Z,69.89
2019-03-23T12:35:33.769Z,68.80
2019-03-23T12:37:59.569Z,69.63
2019-03-23T12:40:25.356Z,67.39
2019-03-23T12:42:51.142Z,66.43
2019-03-23T12:45:16.949Z,65.92
2019-03-23T12:47:42.748Z,64.40
2019-03-23T12:50:09.438Z,62.95
2019-03-23T12:52:35.227Z,64.08
2019-03-23T12:55:01.123Z,65.51
2019-03-23T12:57:26.903Z,65.04
2019-03-23T12:59:52.693Z,65.49
2019-03-23T13:02:18.482Z,64.86
2019-03-23T13:04:44.308Z,63.51
2019-03-23T13:07:10.094Z,65.17
2019-03-23T13:09:35.889Z,60.76
2019-03-23T13:12:01.669Z,61.02
2019-03-23T13:14:27.461Z,59.72
2019-03-23T13:16:53.258Z,58.08
2019-03-23T13:19:19.044Z,60.36
2019-03-23T13:21:44.865Z,61.49
2019-03-23T13:24:12.558Z,60.38
2019-03-23T13:26:38.360Z,60.97
2019-03-23T13:29:04.142Z,61.27
2019-03-23T13:31:29.941Z,58.46
2019-03-23T13:33:55.731Z,56.79
2019-03-23T13:36:21.522Z,55.60
2019-03-23T13:38:47.305Z,55.30
2019-03-23T13:41:13.110Z,56.45
2019-03-23T13:43:38.889Z,57.28
2019-03-23T13:46:04.694Z,56.58
2019-03-23T13:48:30.476Z,55.95
2019-03-23T13:50:56.277Z,54.98
2019-03-23T13:53:22.071Z,55.92
2019-03-23T13:55:47.903Z,56.47
2019-03-23T13:58:13.787Z,54.98
2019-03-23T14:00:39.578Z,55.22
2019-03-23T14:03:06.374Z,54.59
2019-03-23T14:05:32.157Z,55.48
2019-03-23T14:07:57.955Z,57.16
2019-03-23T14:10:23.750Z,56.89
2019-03-23T14:12:49.546Z,56.85
2019-03-23T14:15:15.324Z,55.77
2019-03-23T14:17:41.116Z,54.20
2019-03-23T14:20:06.897Z,54.36
2019-03-23T14:22:32.705Z,55.25
2019-03-23T14:24:58.490Z,55.83
2019-03-23T14:27:24.312Z,55.75
2019-03-23T14:29:50.154Z,55.07
2019-03-23T14:32:15.958Z,54.19
2019-03-23T14:34:41.762Z,55.46
2019-03-23T14:37:07.673Z,56.75
2019-03-23T14:39:33.460Z,57.74
2019-03-23T14:42:04.893Z,58.98
2019-03-23T14:44:26.949Z,59.60
2019-03-23T14:46:52.746Z,59.82
2019-03-23T14:49:18.527Z,59.14
2019-03-23T14:51:44.322Z,59.84
2019-03-23T14:54:10.145Z,59.76
2019-03-23T14:56:35.935Z,59.98
2019-03-23T14:59:01.730Z,60.45
2019-03-23T15:01:27.515Z,59.89
2019-03-23T15:03:53.341Z,60.18
2019-03-23T15:06:19.101Z,61.04
2019-03-23T15:08:44.901Z,62.26
2019-03-23T15:11:10.689Z,61.83
2019-03-23T15:13:36.487Z,60.52
2019-03-23T15:16:02.283Z,59.19
2019-03-23T15:18:28.101Z,57.75
2019-03-23T15:20:53.884Z,57.07
2019-03-23T15:23:19.711Z,56.52
2019-03-23T15:25:45.493Z,57.62
2019-03-23T15:28:11.314Z,58.24
2019-03-23T15:30:37.093Z,59.02
2019-03-23T15:33:02.886Z,58.93
2019-03-23T15:35:28.683Z,59.43
2019-03-23T15:37:54.473Z,58.79
2019-03-23T15:40:20.269Z,59.80
2019-03-23T15:42:46.065Z,59.79
2019-03-23T15:45:12.061Z,61.31
2019-03-23T15:47:37.856Z,61.62
2019-03-23T15:50:04.866Z,61.43
2019-03-23T15:52:30.659Z,60.92
2019-03-23T15:54:56.455Z,56.85
2019-03-23T15:57:22.239Z,54.42
2019-03-23T15:59:48.034Z,54.75
2019-03-23T16:02:13.820Z,51.84
2019-03-23T16:04:39.616Z,51.33
2019-03-23T16:07:05.414Z,51.96
2019-03-23T16:09:31.216Z,53.59
2019-03-23T16:11:57.010Z,57.58
2019-03-23T16:14:22.803Z,57.58
2019-03-23T16:16:48.594Z,58.55
2019-03-23T16:19:14.398Z,59.99
2019-03-23T16:21:40.207Z,60.56
2019-03-23T16:24:05.989Z,61.13
2019-03-23T16:26:31.787Z,61.65
2019-03-23T16:28:57.570Z,61.71
2019-03-23T16:31:23.365Z,62.10
2019-03-23T16:33:49.157Z,62.33
2019-03-23T16:36:14.961Z,62.32
2019-03-23T16:38:40.746Z,63.00
2019-03-23T16:41:06.546Z,62.66
2019-03-23T16:43:32.324Z,62.22
2019-03-23T16:45:58.121Z,62.54
2019-03-23T16:48:23.980Z,62.96
2019-03-23T16:50:49.842Z,62.96
2019-03-23T16:53:15.632Z,63.51
2019-03-23T16:55:41.449Z,63.05
2019-03-23T16:58:15.694Z,63.22
2019-03-23T17:00:36.453Z,63.06
2019-03-23T17:03:03.250Z,63.18
2019-03-23T17:05:29.056Z,63.18
2019-03-23T17:07:54.834Z,63.79
2019-03-23T17:10:20.617Z,63.99
2019-03-23T17:12:55.096Z,64.35
2019-03-23T17:15:14.101Z,64.49
2019-03-23T17:17:39.896Z,65.05
2019-03-23T17:20:05.886Z,65.62
2019-03-23T17:22:31.696Z,65.89
2019-03-23T17:24:57.483Z,66.53
2019-03-23T17:27:23.301Z,67.54
2019-03-23T17:29:49.085Z,67.54
2019-03-23T17:32:14.892Z,68.08
2019-03-23T17:34:40.673Z,68.37
2019-03-23T17:37:06.529Z,68.50
2019-03-23T17:39:32.295Z,68.75
2019-03-23T17:41:58.089Z,68.94
2019-03-23T17:44:23.873Z,69.26
2019-03-23T17:46:49.669Z,69.62
2019-03-23T17:49:15.445Z,69.89
2019-03-23T17:51:41.242Z,70.29
2019-03-23T17:54:07.022Z,70.39
2019-03-23T17:56:32.886Z,70.79
2019-03-23T17:58:58.666Z,70.94
2019-03-23T18:01:24.453Z,71.21
2019-03-23T18:03:50.253Z,71.52
2019-03-23T18:06:16.047Z,71.98
2019-03-23T18:08:41.841Z,72.20
2019-03-23T18:11:07.626Z,72.43
2019-03-23T18:13:33.424Z,72.54
2019-03-23T18:15:59.208Z,72.96
2019-03-23T18:18:25.008Z,73.64
2019-03-23T18:20:50.790Z,73.67
2019-03-23T18:23:16.823Z,74.09
2019-03-23T18:25:42.596Z,74.59
2019-03-23T18:28:08.395Z,74.95
2019-03-23T18:30:39.209Z,75.28
2019-03-23T18:33:05.214Z,75.50
2019-03-23T18:35:31.090Z,75.96
2019-03-23T18:37:56.881Z,75.95
2019-03-23T18:40:22.671Z,76.22
2019-03-23T18:42:48.455Z,76.67
2019-03-23T18:45:14.268Z,77.42
2019-03-23T18:47:40.052Z,77.42
2019-03-23T18:50:05.957Z,77.69
2019-03-23T18:52:31.846Z,77.62
2019-03-23T18:54:57.735Z,77.90
2019-03-23T18:57:23.517Z,77.95
2019-03-23T18:59:49.328Z,78.16
2019-03-23T19:02:15.100Z,78.63
2019-03-23T19:04:40.895Z,78.91
2019-03-23T19:07:06.679Z,78.88
2019-03-23T19:09:32.493Z,79.38
2019-03-23T19:11:58.472Z,79.58
2019-03-23T19:14:24.278Z,79.25
2019-03-23T19:16:50.060Z,79.30
2019-03-23T19:19:15.858Z,79.45
2019-03-23T19:21:41.650Z,79.49
2019-03-23T19:24:07.444Z,79.32
2019-03-23T19:26:33.227Z,79.56
2019-03-23T19:28:59.036Z,79.72
2019-03-23T19:31:24.819Z,79.89
2019-03-23T19:33:50.595Z,79.97
2019-03-23T19:36:16.394Z,80.10
2019-03-23T19:38:42.177Z,80.70
2019-03-23T19:41:07.973Z,80.71
2019-03-23T19:43:33.759Z,81.13
2019-03-23T19:45:59.558Z,81.21
2019-03-23T19:48:25.344Z,81.66
2019-03-23T19:50:51.134Z,81.80
2019-03-23T19:53:17.033Z,82.08
2019-03-23T19:55:42.823Z,82.28
2019-03-23T19:58:08.606Z,82.42
2019-03-23T20:00:34.413Z,82.69
2019-03-23T20:03:00.194Z,82.70
2019-03-23T20:05:26.015Z,83.03
2019-03-23T20:07:51.777Z,83.50
2019-03-23T20:10:17.687Z,83.73
2019-03-23T20:12:43.465Z,84.20
2019-03-23T20:15:09.870Z,84.37
2019-03-23T20:17:35.652Z,84.82
2019-03-23T20:20:03.549Z,84.88
2019-03-23T20:22:29.345Z,84.99
2019-03-23T20:24:55.828Z,85.09
2019-03-23T20:27:21.613Z,85.19
2019-03-23T20:29:47.396Z,85.62
2019-03-23T20:32:13.194Z,85.93
2019-03-23T20:34:38.978Z,85.99
2019-03-23T20:37:04.780Z,86.05
2019-03-23T20:39:30.567Z,86.22
2019-03-23T20:41:56.370Z,86.34
2019-03-23T20:44:22.157Z,86.48
2019-03-23T20:46:48.043Z,86.44
2019-03-23T20:49:13.921Z,86.84
2019-03-23T20:51:40.039Z,86.83
2019-03-23T20:54:05.813Z,86.60
2019-03-23T20:56:31.606Z,86.81
2019-03-23T20:58:57.384Z,87.14
2019-03-23T21:01:23.176Z,87.24
2019-03-23T21:03:48.966Z,87.26
2019-03-23T21:06:14.762Z,87.47
2019-03-23T21:08:40.541Z,87.50
2019-03-23T21:11:06.329Z,87.73
2019-03-23T21:13:32.112Z,87.67
2019-03-23T21:15:57.931Z,87.51
2019-03-23T21:18:23.706Z,87.68
2019-03-23T21:20:49.484Z,87.94
2019-03-23T21:23:15.301Z,88.44
2019-03-23T21:25:41.081Z,88.44
2019-03-23T21:28:06.884Z,88.39
2019-03-23T21:30:32.673Z,88.31
2019-03-23T21:32:58.473Z,88.49
2019-03-23T21:35:24.245Z,88.69
2019-03-23T21:37:50.102Z,88.79
2019-03-23T21:40:15.838Z,89.00
2019-03-23T21:42:41.636Z,89.20
2019-03-23T21:45:08.126Z,89.34
2019-03-23T21:47:34.129Z,89.34
2019-03-23T21:49:59.913Z,89.61
2019-03-23T21:52:25.718Z,89.46
2019-03-23T21:54:51.505Z,89.74
2019-03-23T21:57:17.385Z,90.02
2019-03-23T21:59:43.185Z,89.66
2019-03-23T22:02:08.960Z,89.55
2019-03-23T22:04:35.037Z,89.54
2019-03-23T22:07:00.868Z,89.48
2019-03-23T22:09:26.662Z,89.44
2019-03-23T22:11:52.448Z,89.66
2019-03-23T22:14:18.387Z,89.67
2019-03-23T22:16:44.324Z,89.69
2019-03-23T22:19:10.116Z,89.97
2019-03-23T22:21:35.914Z,89.84
2019-03-23T22:24:01.708Z,90.00
2019-03-23T22:26:27.496Z,89.89
2019-03-23T22:28:53.289Z,89.74
2019-03-23T22:31:19.076Z,89.94
2019-03-23T22:33:44.871Z,89.89
2019-03-23T22:36:10.654Z,89.98
2019-03-23T22:38:36.454Z,89.73
2019-03-23T22:41:02.236Z,89.83
2019-03-23T22:43:28.046Z,89.56
2019-03-23T22:45:53.840Z,89.50
2019-03-23T22:48:19.622Z,89.71
2019-03-23T22:50:45.428Z,89.66
2019-03-23T22:53:11.217Z,89.90
2019-03-23T22:55:37.016Z,90.19
2019-03-23T22:58:02.897Z,90.06
2019-03-23T23:00:42.175Z,89.90
2019-03-23T23:03:08.264Z,89.67
2019-03-23T23:05:34.060Z,89.72
2019-03-23T23:07:59.842Z,89.49
2019-03-23T23:10:25.632Z,89.86
2019-03-23T23:12:51.422Z,89.53
2019-03-23T23:15:17.295Z,89.73
2019-03-23T23:17:43.074Z,89.58
2019-03-23T23:20:09.066Z,89.12
2019-03-23T23:22:34.856Z,89.28
2019-03-23T23:25:01.151Z,89.45
2019-03-23T23:27:26.933Z,89.58
2019-03-23T23:29:52.729Z,89.63
2019-03-23T23:32:18.508Z,89.70
2019-03-23T23:34:44.360Z,89.76
2019-03-23T23:37:10.107Z,89.84
2019-03-23T23:39:35.885Z,89.75
2019-03-23T23:42:01.677Z,89.63
2019-03-23T23:44:27.467Z,89.55
2019-03-23T23:46:53.275Z,89.48
2019-03-23T23:49:19.065Z,89.10
2019-03-23T23:51:50.084Z,89.06
2019-03-23T23:54:12.558Z,89.13
2019-03-23T23:56:38.408Z,89.19
2019-03-23T23:59:04.242Z,89.50
